Time,TemperatureF,DewpointF,PressureIn,WindDirection,WindDirectionDegrees,WindSpeedMPH,WindSpeedGustMPH,Humidity,HourlyPrecipIn,Conditions,Clouds,dailyrainin,SolarRadiationWatts/m^2,SoftwareType,DateUTC
2013-03-13 00:00:00,35.7,27.3,30.05,WSW,254,0.0,0.0,71,0.00,CLR,CLR,0.00,0.0,WeatherDisplay:10.37,2013-03-13 04:00:00,
2013-03-13 00:05:00,35.2,27.1,30.05,WSW,254,0.0,0.0,72,0.00,CLR,CLR,0.00,0.0,WeatherDisplay:10.37,2013-03-13 04:05:00,
2013-03-13 00:10:00,34.8,26.7,30.06,WSW,254,0.0,0.0,72,0.00,CLR,CLR,0.00,0.0,WeatherDisplay:10.37,2013-03-13 04:10:00,
2013-03-13 00:15:00,34.4,26.6,30.06,WSW,254,0.0,0.0,73,0.00,CLR,CLR,0.00,0.0,WeatherDisplay:10.37,2013-03-13 04:15:00,
2013-03-13 00:20:00,34.2,27.1,30.06,WSW,254,0.0,0.0,75,0.00,CLR,CLR,0.00,0.0,WeatherDisplay:10.37,2013-03-13 04:20:00,
2013-03-13 00:30:00,33.4,26.6,30.06,WSW,254,0.0,0.0,76,0.00,CLR,CLR,0.00,0.0,WeatherDisplay:10.37,2013-03-13 04:30:00,
2013-03-13 00:40:00,32.8,26.4,30.06,WSW,254,0.0,0.0,77,0.00,CLR,CLR,0.00,0.0,WeatherDisplay:10.37,2013-03-13 04:40:00,
2013-03-13 00:50:00,32.5,26.1,30.06,WSW,254,0.0,0.0,77,0.00,CLR,CLR,0.00,0.0,WeatherDisplay:10.37,2013-03-13 04:50:00,
2013-03-13 01:00:00,32.3,26.2,30.06,WSW,254,0.0,0.0,78,0.00,CLR,CLR,0.00,0.0,WeatherDisplay:10.37,2013-03-13 05:00:00,
2013-03-13 01:10:00,32.0,26.8,30.06,WSW,254,0.0,0.0,81,0.00,CLR,CLR,0.00,0.0,WeatherDisplay:10.37,2013-03-13 05:10:00,
2013-03-13 01:15:00,31.8,27.2,30.06,WSW,254,0.0,0.0,83,0.00,CLR,CLR,0.00,0.0,WeatherDisplay:10.37,2013-03-13 05:15:00,
2013-03-13 01:25:00,31.2,26.3,30.05,WSW,254,0.0,0.0,82,0.00,CLR,CLR,0.00,0.0,WeatherDisplay:10.37,2013-03-13 05:25:00,
2013-03-13 01:35:00,30.9,26.3,30.05,WSW,254,0.0,0.0,83,0.00,CLR,CLR,0.00,0.0,WeatherDisplay:10.37,2013-03-13 05:35:00,
2013-03-13 01:40:00,30.7,26.1,30.05,WSW,254,0.0,0.0,83,0.00,CLR,CLR,0.00,0.0,WeatherDisplay:10.37,2013-03-13 05:40:00,
2013-03-13 01:45:00,30.6,26.1,30.05,WSW,254,0.0,0.0,83,0.00,CLR,CLR,0.00,0.0,WeatherDisplay:10.37,2013-03-13 05:45:00,
2013-03-13 01:50:00,30.5,26.0,30.06,WSW,254,0.0,0.0,83,0.00,CLR,CLR,0.00,0.0,WeatherDisplay:10.37,2013-03-13 05:50:00,
2013-03-13 01:55:00,30.5,25.7,30.06,WSW,254,0.0,0.0,82,0.00,CLR,CLR,0.00,0.0,WeatherDisplay:10.37,2013-03-13 05:55:00,
2013-03-13 02:00:00,30.6,26.3,30.06,WSW,254,0.0,0.0,84,0.00,CLR,CLR,0.00,0.0,WeatherDisplay:10.37,2013-03-13 06:00:00,
2013-03-13 02:05:00,30.7,26.4,30.05,WSW,254,0.0,0.0,84,0.00,CLR,CLR,0.00,0.0,WeatherDisplay:10.37,2013-03-13 06:05:00,
2013-03-13 02:10:00,30.6,26.1,30.05,WSW,254,0.0,0.0,83,0.00,CLR,CLR,0.00,0.0,WeatherDisplay:10.37,2013-03-13 06:10:00,
2013-03-13 02:20:00,30.7,26.1,30.06,WSW,254,0.0,0.0,83,0.00,CLR,CLR,0.00,0.0,WeatherDisplay:10.37,2013-03-13 06:20:00,
2013-03-13 02:25:00,30.8,26.2,30.06,WSW,254,0.0,1.0,83,0.00,CLR,CLR,0.00,0.0,WeatherDisplay:10.37,2013-03-13 06:25:00,
2013-03-13 02:30:00,30.8,26.2,30.06,WSW,254,0.0,0.0,83,0.00,CLR,CLR,0.00,0.0,WeatherDisplay:10.37,2013-03-13 06:30:00,
2013-03-13 02:35:00,30.9,26.0,30.06,WSW,254,0.0,0.0,82,0.00,CLR,CLR,0.00,0.0,WeatherDisplay:10.37,2013-03-13 06:35:00,
2013-03-13 02:40:00,31.3,26.2,30.06,West,268,0.0,6.0,81,0.00,CLR,CLR,0.00,0.0,WeatherDisplay:10.37,2013-03-13 06:40:00,
2013-03-13 02:45:00,32.8,26.4,30.06,WNW,292,1.0,5.0,77,0.00,CLR,CLR,0.00,0.0,WeatherDisplay:10.37,2013-03-13 06:45:00,
2013-03-13 02:50:00,33.3,26.5,30.06,NW,312,0.0,0.0,76,0.00,CLR,CLR,0.00,0.0,WeatherDisplay:10.37,2013-03-13 06:50:00,
2013-03-13 03:00:00,32.5,25.7,30.06,NW,315,0.0,0.0,76,0.00,CLR,CLR,0.00,0.0,WeatherDisplay:10.37,2013-03-13 07:00:00,
2013-03-13 03:05:00,32.4,25.7,30.06,SW,232,0.0,3.0,76,0.00,CLR,CLR,0.00,0.0,WeatherDisplay:10.37,2013-03-13 07:05:00,
2013-03-13 03:10:00,32.1,25.7,30.05,SSW,203,0.0,0.0,77,0.00,CLR,CLR,0.00,0.0,WeatherDisplay:10.37,2013-03-13 07:10:00,
2013-03-13 03:15:00,32.1,25.7,30.06,South,174,0.0,2.0,77,0.00,CLR,CLR,0.00,0.0,WeatherDisplay:10.37,2013-03-13 07:15:00,
2013-03-13 03:25:00,32.5,25.8,30.05,SW,234,0.0,0.0,76,0.00,CLR,CLR,0.00,0.0,WeatherDisplay:10.37,2013-03-13 07:25:00,
2013-03-13 03:30:00,32.3,25.9,30.05,SW,234,0.0,0.0,77,0.00,CLR,CLR,0.00,0.0,WeatherDisplay:10.37,2013-03-13 07:30:00,
2013-03-13 03:40:00,31.6,24.9,30.06,SW,234,0.0,1.0,76,0.00,CLR,CLR,0.00,0.0,WeatherDisplay:10.37,2013-03-13 07:40:00,
2013-03-13 03:45:00,31.3,24.9,30.05,SW,234,0.0,0.0,77,0.00,CLR,CLR,0.00,0.0,WeatherDisplay:10.37,2013-03-13 07:45:00,
2013-03-13 03:50:00,31.3,23.6,30.06,WSW,249,1.0,6.0,73,0.00,CLR,CLR,0.00,0.0,WeatherDisplay:10.37,2013-03-13 07:50:00,
2013-03-13 04:00:00,32.7,25.3,30.06,West,269,0.0,0.0,74,0.00,CLR,CLR,0.00,0.0,WeatherDisplay:10.37,2013-03-13 08:00:00,
2013-03-13 04:05:00,32.3,24.9,30.06,West,269,0.0,0.0,74,0.00,CLR,CLR,0.00,0.0,WeatherDisplay:10.37,2013-03-13 08:05:00,
2013-03-13 04:10:00,31.9,24.5,30.05,West,269,0.0,0.0,74,0.00,CLR,CLR,0.00,0.0,WeatherDisplay:10.37,2013-03-13 08:10:00,
2013-03-13 04:15:00,31.4,24.4,30.06,West,269,0.0,1.0,75,0.00,CLR,CLR,0.00,0.0,WeatherDisplay:10.37,2013-03-13 08:15:00,
2013-03-13 04:25:00,32.7,24.0,30.06,WSW,252,3.0,9.0,70,0.00,CLR,CLR,0.00,0.0,WeatherDisplay:10.37,2013-03-13 08:25:00,
2013-03-13 04:30:00,33.8,24.7,30.06,WSW,251,0.0,3.0,69,0.00,CLR,CLR,0.00,0.0,WeatherDisplay:10.37,2013-03-13 08:30:00,
2013-03-13 04:40:00,33.5,24.8,30.06,WSW,246,0.0,3.0,70,0.00,CLR,CLR,0.00,0.0,WeatherDisplay:10.37,2013-03-13 08:40:00,
2013-03-13 04:50:00,32.1,24.1,30.06,SW,227,0.0,0.0,72,0.00,CLR,CLR,0.00,0.0,WeatherDisplay:10.37,2013-03-13 08:50:00,
2013-03-13 04:55:00,31.6,24.3,30.06,SW,227,0.0,0.0,74,0.00,CLR,CLR,0.00,0.0,WeatherDisplay:10.37,2013-03-13 08:55:00,
2013-03-13 05:05:00,31.0,24.0,30.06,SW,227,0.0,0.0,75,0.00,CLR,CLR,0.00,0.0,WeatherDisplay:10.37,2013-03-13 09:05:00,
2013-03-13 05:10:00,30.7,24.0,30.06,SW,227,0.0,0.0,76,0.00,CLR,CLR,0.00,0.0,WeatherDisplay:10.37,2013-03-13 09:10:00,
2013-03-13 05:15:00,30.4,24.1,30.06,SW,227,0.0,0.0,77,0.00,CLR,CLR,0.00,0.0,WeatherDisplay:10.37,2013-03-13 09:15:00,
2013-03-13 05:20:00,30.1,24.1,30.06,SW,227,0.0,1.0,78,0.00,CLR,CLR,0.00,0.0,WeatherDisplay:10.37,2013-03-13 09:20:00,
2013-03-13 05:25:00,30.0,23.7,30.06,SW,227,0.0,1.0,77,0.00,CLR,CLR,0.00,0.0,WeatherDisplay:10.37,2013-03-13 09:25:00,
2013-03-13 05:30:00,30.0,24.0,30.06,SW,226,0.0,0.0,78,0.00,CLR,CLR,0.00,0.0,WeatherDisplay:10.37,2013-03-13 09:30:00,
2013-03-13 05:35:00,29.9,24.2,30.06,SW,226,0.0,0.0,79,0.00,CLR,CLR,0.00,0.0,WeatherDisplay:10.37,2013-03-13 09:35:00,
2013-03-13 05:45:00,29.6,24.2,30.06,SW,227,0.0,0.0,80,0.00,CLR,CLR,0.00,0.0,WeatherDisplay:10.37,2013-03-13 09:45:00,
2013-03-13 05:50:00,29.3,23.9,30.06,SW,227,0.0,0.0,80,0.00,CLR,CLR,0.00,0.0,WeatherDisplay:10.37,2013-03-13 09:50:00,
2013-03-13 06:00:00,28.9,23.8,30.07,SW,227,0.0,1.0,81,0.00,CLR,CLR,0.00,0.0,WeatherDisplay:10.37,2013-03-13 10:00:00,
2013-03-13 06:05:00,29.0,24.2,30.07,SW,227,0.0,0.0,82,0.00,CLR,CLR,0.00,0.0,WeatherDisplay:10.37,2013-03-13 10:05:00,
2013-03-13 06:10:00,29.1,24.3,30.07,SW,227,0.0,1.0,82,0.00,CLR,CLR,0.00,0.0,WeatherDisplay:10.37,2013-03-13 10:10:00,
2013-03-13 06:15:00,29.0,24.2,30.07,SW,227,0.0,0.0,82,0.00,CLR,CLR,0.00,0.0,WeatherDisplay:10.37,2013-03-13 10:15:00,
2013-03-13 06:25:00,28.8,24.3,30.07,SW,227,0.0,0.0,83,0.00,CLR,CLR,0.00,0.0,WeatherDisplay:10.37,2013-03-13 10:25:00,
2013-03-13 06:30:00,28.8,24.3,30.07,SW,227,0.0,0.0,83,0.00,CLR,CLR,0.00,0.0,WeatherDisplay:10.37,2013-03-13 10:30:00,
2013-03-13 06:40:00,28.7,24.2,30.07,SW,227,0.0,0.0,83,0.00,CLR,CLR,0.00,0.0,WeatherDisplay:10.37,2013-03-13 10:40:00,
2013-03-13 06:50:00,28.8,24.3,30.07,SW,227,0.0,0.0,83,0.00,CLR,CLR,0.00,0.0,WeatherDisplay:10.37,2013-03-13 10:50:00,
2013-03-13 06:55:00,28.8,24.0,30.08,SW,227,0.0,0.0,82,0.00,CLR,CLR,0.00,0.0,WeatherDisplay:10.37,2013-03-13 10:55:00,
2013-03-13 07:00:00,28.7,23.9,30.08,SW,227,0.0,0.0,82,0.00,CLR,CLR,0.00,0.0,WeatherDisplay:10.37,2013-03-13 11:00:00,
2013-03-13 07:05:00,28.6,24.4,30.08,SW,227,0.0,0.0,84,0.00,CLR,CLR,0.00,0.0,WeatherDisplay:10.37,2013-03-13 11:05:00,
2013-03-13 07:10:00,28.4,24.2,30.08,SW,226,0.0,0.0,84,0.00,CLR,CLR,0.00,0.0,WeatherDisplay:10.37,2013-03-13 11:10:00,
2013-03-13 07:15:00,28.1,23.9,30.08,SW,227,0.0,0.0,84,0.00,OVC,OVC,0.00,0.0,WeatherDisplay:10.37,2013-03-13 11:15:00,
2013-03-13 07:20:00,27.8,23.6,30.08,SW,227,0.0,0.0,84,0.00,OVC,OVC,0.00,0.0,WeatherDisplay:10.37,2013-03-13 11:20:00,
2013-03-13 07:30:00,27.5,23.6,30.08,SW,227,0.0,0.0,85,0.00,OVC,OVC,0.00,0.0,WeatherDisplay:10.37,2013-03-13 11:30:00,
2013-03-13 07:35:00,27.3,23.4,30.08,SW,227,0.0,1.0,85,0.00,OVC,OVC,0.00,0.0,WeatherDisplay:10.37,2013-03-13 11:35:00,
2013-03-13 07:40:00,27.2,23.3,30.09,SW,227,0.0,0.0,85,0.00,OVC,OVC,0.00,0.0,WeatherDisplay:10.37,2013-03-13 11:40:00,
2013-03-13 07:50:00,27.2,23.0,30.09,SW,227,0.0,0.0,84,0.00,CLR,CLR,0.00,9.0,WeatherDisplay:10.37,2013-03-13 11:50:00,
2013-03-13 08:00:00,27.3,23.1,30.09,SW,227,0.0,0.0,84,0.00,BKN,BKN,0.00,16.0,WeatherDisplay:10.37,2013-03-13 12:00:00,
2013-03-13 08:05:00,27.5,23.3,30.09,SW,227,0.0,0.0,84,0.00,BKN,BKN,0.00,19.0,WeatherDisplay:10.37,2013-03-13 12:05:00,
2013-03-13 08:10:00,27.6,23.4,30.10,SW,226,0.0,0.0,84,0.00,BKN,BKN,0.00,23.0,WeatherDisplay:10.37,2013-03-13 12:10:00,
2013-03-13 08:15:00,27.8,23.3,30.10,SW,227,0.0,1.0,83,0.00,BKN,BKN,0.00,26.0,WeatherDisplay:10.37,2013-03-13 12:15:00,
2013-03-13 08:20:00,28.0,23.5,30.10,SW,227,0.0,0.0,83,0.00,SCT,SCT,0.00,46.0,WeatherDisplay:10.37,2013-03-13 12:20:00,
2013-03-13 08:25:00,28.3,24.1,30.10,SW,226,0.0,0.0,84,0.00,CLR,CLR,0.00,93.0,WeatherDisplay:10.37,2013-03-13 12:25:00,
2013-03-13 08:30:00,28.8,24.3,30.11,SW,227,0.0,0.0,83,0.00,CLR,CLR,0.00,116.0,WeatherDisplay:10.37,2013-03-13 12:30:00,
2013-03-13 08:40:00,30.4,25.0,30.11,SW,227,0.0,0.0,80,0.00,OVC,OVC,0.00,40.0,WeatherDisplay:10.37,2013-03-13 12:40:00,
2013-03-13 08:45:00,31.3,24.6,30.11,WSW,248,0.0,5.0,76,0.00,CLR,CLR,0.00,162.0,WeatherDisplay:10.37,2013-03-13 12:45:00,
2013-03-13 08:50:00,32.6,24.9,30.11,WSW,249,0.0,4.0,73,0.00,CLR,CLR,0.00,179.0,WeatherDisplay:10.37,2013-03-13 12:50:00,
2013-03-13 08:55:00,33.5,24.8,30.11,WSW,241,0.0,4.0,70,0.00,CLR,CLR,0.00,206.0,WeatherDisplay:10.37,2013-03-13 12:55:00,
2013-03-13 09:00:00,34.3,24.5,30.11,WSW,244,6.0,12.0,67,0.00,CLR,CLR,0.00,229.0,WeatherDisplay:10.37,2013-03-13 13:00:00,
2013-03-13 09:05:00,34.8,24.6,30.11,WSW,253,5.0,12.0,66,0.00,CLR,CLR,0.00,248.0,WeatherDisplay:10.37,2013-03-13 13:05:00,
2013-03-13 09:10:00,35.2,24.6,30.11,WSW,251,2.0,5.0,65,0.00,CLR,CLR,0.00,271.0,WeatherDisplay:10.37,2013-03-13 13:10:00,
2013-03-13 09:15:00,35.6,24.6,30.11,WSW,253,3.0,12.0,64,0.00,CLR,CLR,0.00,290.0,WeatherDisplay:10.37,2013-03-13 13:15:00,
2013-03-13 09:20:00,36.0,25.0,30.11,West,261,10.0,15.0,64,0.00,CLR,CLR,0.00,309.0,WeatherDisplay:10.37,2013-03-13 13:20:00,
2013-03-13 09:25:00,36.2,24.8,30.11,West,260,3.0,14.0,63,0.00,CLR,CLR,0.00,327.0,WeatherDisplay:10.37,2013-03-13 13:25:00,
2013-03-13 09:30:00,36.5,25.1,30.11,West,264,8.0,14.0,63,0.00,CLR,CLR,0.00,353.0,WeatherDisplay:10.37,2013-03-13 13:30:00,
2013-03-13 09:40:00,36.7,24.9,30.11,WSW,250,10.0,20.0,62,0.00,CLR,CLR,0.00,397.0,WeatherDisplay:10.37,2013-03-13 13:40:00,
2013-03-13 09:50:00,37.0,24.8,30.11,West,264,7.0,22.0,61,0.00,CLR,CLR,0.00,443.0,WeatherDisplay:10.37,2013-03-13 13:50:00,
2013-03-13 09:55:00,37.1,25.3,30.11,WNW,282,9.0,20.0,62,0.00,CLR,CLR,0.00,466.0,WeatherDisplay:10.37,2013-03-13 13:55:00,
2013-03-13 10:00:00,37.3,25.1,30.11,West,274,5.0,18.0,61,0.00,CLR,CLR,0.00,478.0,WeatherDisplay:10.37,2013-03-13 14:00:00,
2013-03-13 10:05:00,37.5,24.9,30.11,West,271,7.0,17.0,60,0.00,OVC,OVC,0.00,113.0,WeatherDisplay:10.37,2013-03-13 14:05:00,
2013-03-13 10:10:00,37.5,24.9,30.11,West,269,6.0,22.0,60,0.00,CLR,CLR,0.00,517.0,WeatherDisplay:10.37,2013-03-13 14:10:00,
2013-03-13 10:20:00,37.7,24.2,30.11,West,279,9.0,20.0,58,0.00,CLR,CLR,0.00,538.0,WeatherDisplay:10.37,2013-03-13 14:20:00,
2013-03-13 10:30:00,38.0,24.1,30.11,WSW,250,8.0,27.0,57,0.00,CLR,CLR,0.00,563.0,WeatherDisplay:10.37,2013-03-13 14:30:00,
2013-03-13 10:35:00,37.7,23.4,30.11,WSW,253,12.0,25.0,56,0.00,CLR,CLR,0.00,570.0,WeatherDisplay:10.37,2013-03-13 14:35:00,
2013-03-13 10:40:00,37.7,23.0,30.12,WSW,245,8.0,24.0,55,0.00,CLR,CLR,0.00,582.0,WeatherDisplay:10.37,2013-03-13 14:40:00,
2013-03-13 10:45:00,37.7,23.4,30.11,WSW,246,8.0,27.0,56,0.00,CLR,CLR,0.00,601.0,WeatherDisplay:10.37,2013-03-13 14:45:00,
2013-03-13 10:50:00,38.0,22.3,30.11,West,273,14.0,23.0,53,0.00,CLR,CLR,0.00,610.0,WeatherDisplay:10.37,2013-03-13 14:50:00,
2013-03-13 10:55:00,38.1,22.5,30.12,West,280,7.0,18.0,53,0.00,CLR,CLR,0.00,628.0,WeatherDisplay:10.37,2013-03-13 14:55:00,
2013-03-13 11:00:00,38.1,22.4,30.11,West,267,10.0,25.0,53,0.00,CLR,CLR,0.00,638.0,WeatherDisplay:10.37,2013-03-13 15:00:00,
2013-03-13 11:10:00,38.3,21.7,30.12,WNW,286,10.0,28.0,51,0.00,CLR,CLR,0.00,654.0,WeatherDisplay:10.37,2013-03-13 15:10:00,
2013-03-13 11:20:00,38.6,22.4,30.12,WSW,257,15.0,22.0,52,0.00,CLR,CLR,0.00,686.0,WeatherDisplay:10.37,2013-03-13 15:20:00,
2013-03-13 11:25:00,38.5,21.5,30.12,WSW,254,8.0,31.0,50,0.00,CLR,CLR,0.00,700.0,WeatherDisplay:10.37,2013-03-13 15:25:00,
2013-03-13 11:30:00,38.7,21.2,30.12,WSW,257,15.0,26.0,49,0.00,CLR,CLR,0.00,701.0,WeatherDisplay:10.37,2013-03-13 15:30:00,
2013-03-13 11:35:00,39.0,21.4,30.12,WNW,284,6.0,20.0,49,0.00,CLR,CLR,0.00,717.0,WeatherDisplay:10.37,2013-03-13 15:35:00,
2013-03-13 11:45:00,39.0,20.9,30.12,WNW,294,7.0,17.0,48,0.00,CLR,CLR,0.00,726.0,WeatherDisplay:10.37,2013-03-13 15:45:00,
2013-03-13 11:50:00,39.2,20.1,30.12,West,269,10.0,32.0,46,0.00,CLR,CLR,0.00,738.0,WeatherDisplay:10.37,2013-03-13 15:50:00,
2013-03-13 11:55:00,39.1,21.0,30.12,WSW,253,14.0,21.0,48,0.00,CLR,CLR,0.00,749.0,WeatherDisplay:10.37,2013-03-13 15:55:00,
2013-03-13 12:00:00,39.1,20.5,30.12,WSW,251,13.0,23.0,47,0.00,CLR,CLR,0.00,772.0,WeatherDisplay:10.37,2013-03-13 16:00:00,
2013-03-13 12:10:00,39.5,20.9,30.12,West,260,3.0,22.0,47,0.00,CLR,CLR,0.00,779.0,WeatherDisplay:10.37,2013-03-13 16:10:00,
2013-03-13 12:15:00,39.5,21.4,30.12,WSW,247,10.0,32.0,48,0.00,CLR,CLR,0.00,789.0,WeatherDisplay:10.37,2013-03-13 16:15:00,
2013-03-13 12:20:00,39.4,21.3,30.12,WSW,256,3.0,26.0,48,0.00,CLR,CLR,0.00,793.0,WeatherDisplay:10.37,2013-03-13 16:20:00,
2013-03-13 12:30:00,39.2,21.2,30.12,WSW,251,8.0,30.0,48,0.00,CLR,CLR,0.00,807.0,WeatherDisplay:10.37,2013-03-13 16:30:00,
2013-03-13 12:35:00,39.8,21.1,30.13,WSW,248,6.0,28.0,47,0.00,CLR,CLR,0.00,816.0,WeatherDisplay:10.37,2013-03-13 16:35:00,
2013-03-13 12:40:00,39.7,21.1,30.13,WSW,253,10.0,20.0,47,0.00,CLR,CLR,0.00,828.0,WeatherDisplay:10.37,2013-03-13 16:40:00,
2013-03-13 12:50:00,40.1,22.5,30.12,West,276,6.0,18.0,49,0.00,CLR,CLR,0.00,856.0,WeatherDisplay:10.37,2013-03-13 16:50:00,
2013-03-13 13:00:00,41.2,22.9,30.12,WSW,252,6.0,10.0,48,0.00,CLR,CLR,0.00,844.0,WeatherDisplay:10.37,2013-03-13 17:00:00,
2013-03-13 13:05:00,41.1,21.8,30.12,WSW,238,13.0,21.0,46,0.00,CLR,CLR,0.00,828.0,WeatherDisplay:10.37,2013-03-13 17:05:00,
2013-03-13 13:15:00,40.9,21.6,30.12,WSW,249,8.0,22.0,46,0.00,CLR,CLR,0.00,838.0,WeatherDisplay:10.37,2013-03-13 17:15:00,
2013-03-13 13:25:00,40.1,20.4,30.12,WNW,282,8.0,22.0,45,0.00,CLR,CLR,0.00,838.0,WeatherDisplay:10.37,2013-03-13 17:25:00,
2013-03-13 13:35:00,40.2,20.5,30.12,West,279,8.0,18.0,45,0.00,CLR,CLR,0.00,842.0,WeatherDisplay:10.37,2013-03-13 17:35:00,
2013-03-13 13:40:00,40.6,20.4,30.12,West,261,6.0,16.0,44,0.00,CLR,CLR,0.00,835.0,WeatherDisplay:10.37,2013-03-13 17:40:00,
2013-03-13 13:50:00,40.8,20.0,30.12,West,272,6.0,22.0,43,0.00,CLR,CLR,0.00,858.0,WeatherDisplay:10.37,2013-03-13 17:50:00,
2013-03-13 13:55:00,41.0,21.3,30.12,West,274,9.0,17.0,45,0.00,CLR,CLR,0.00,849.0,WeatherDisplay:10.37,2013-03-13 17:55:00,
2013-03-13 14:00:00,41.1,20.8,30.12,WSW,252,12.0,21.0,44,0.00,CLR,CLR,0.00,847.0,WeatherDisplay:10.37,2013-03-13 18:00:00,
2013-03-13 14:10:00,41.6,21.2,30.12,WSW,254,9.0,20.0,44,0.00,FEW,FEW,0.00,819.0,WeatherDisplay:10.37,2013-03-13 18:10:00,
2013-03-13 14:15:00,41.5,21.2,30.11,WSW,250,16.0,22.0,44,0.00,FEW,FEW,0.00,816.0,WeatherDisplay:10.37,2013-03-13 18:15:00,
2013-03-13 14:20:00,41.3,21.0,30.11,WSW,251,5.0,22.0,44,0.00,CLR,CLR,0.00,837.0,WeatherDisplay:10.37,2013-03-13 18:20:00,
2013-03-13 14:30:00,41.0,19.7,30.11,West,279,14.0,22.0,42,0.00,FEW,FEW,0.00,726.0,WeatherDisplay:10.37,2013-03-13 18:30:00,
2013-03-13 14:35:00,41.1,20.8,30.11,West,278,5.0,14.0,44,0.00,CLR,CLR,0.00,798.0,WeatherDisplay:10.37,2013-03-13 18:35:00,
2013-03-13 14:45:00,41.1,19.7,30.10,WNW,292,3.0,17.0,42,0.00,CLR,CLR,0.00,786.0,WeatherDisplay:10.37,2013-03-13 18:45:00,
2013-03-13 14:50:00,41.4,21.1,30.10,WSW,257,8.0,23.0,44,0.00,FEW,FEW,0.00,773.0,WeatherDisplay:10.37,2013-03-13 18:50:00,
2013-03-13 14:55:00,41.3,20.5,30.10,WSW,253,15.0,20.0,43,0.00,CLR,CLR,0.00,773.0,WeatherDisplay:10.37,2013-03-13 18:55:00,
2013-03-13 15:00:00,41.1,19.7,30.10,West,262,2.0,14.0,42,0.00,CLR,CLR,0.00,766.0,WeatherDisplay:10.37,2013-03-13 19:00:00,
2013-03-13 15:05:00,41.4,19.4,30.10,West,262,5.0,13.0,41,0.00,CLR,CLR,0.00,759.0,WeatherDisplay:10.37,2013-03-13 19:05:00,
2013-03-13 15:15:00,41.7,18.5,30.10,West,261,6.0,18.0,39,0.00,CLR,CLR,0.00,745.0,WeatherDisplay:10.37,2013-03-13 19:15:00,
2013-03-13 15:20:00,41.7,18.5,30.10,West,264,10.0,22.0,39,0.00,CLR,CLR,0.00,728.0,WeatherDisplay:10.37,2013-03-13 19:20:00,
2013-03-13 15:25:00,41.6,19.6,30.10,West,261,8.0,20.0,41,0.00,CLR,CLR,0.00,719.0,WeatherDisplay:10.37,2013-03-13 19:25:00,
2013-03-13 15:30:00,41.8,19.8,30.10,WSW,252,6.0,21.0,41,0.00,CLR,CLR,0.00,708.0,WeatherDisplay:10.37,2013-03-13 19:30:00,
2013-03-13 15:35:00,42.2,19.6,30.10,WSW,247,10.0,21.0,40,0.00,CLR,CLR,0.00,701.0,WeatherDisplay:10.37,2013-03-13 19:35:00,
2013-03-13 15:45:00,41.5,18.4,30.11,West,261,10.0,22.0,39,0.00,CLR,CLR,0.00,675.0,WeatherDisplay:10.37,2013-03-13 19:45:00,
2013-03-13 15:50:00,41.4,18.8,30.11,WSW,252,13.0,29.0,40,0.00,CLR,CLR,0.00,663.0,WeatherDisplay:10.37,2013-03-13 19:50:00,
2013-03-13 15:55:00,41.2,18.7,30.11,WSW,253,13.0,27.0,40,0.00,CLR,CLR,0.00,656.0,WeatherDisplay:10.37,2013-03-13 19:55:00,
2013-03-13 16:00:00,41.1,18.6,30.11,WSW,256,10.0,22.0,40,0.00,CLR,CLR,0.00,643.0,WeatherDisplay:10.37,2013-03-13 20:00:00,
2013-03-13 16:05:00,41.5,19.5,30.11,WSW,256,8.0,22.0,41,0.00,CLR,CLR,0.00,633.0,WeatherDisplay:10.37,2013-03-13 20:05:00,
2013-03-13 16:10:00,41.3,18.8,30.11,WSW,251,13.0,22.0,40,0.00,CLR,CLR,0.00,615.0,WeatherDisplay:10.37,2013-03-13 20:10:00,
2013-03-13 16:20:00,41.8,19.2,30.11,West,270,12.0,22.0,40,0.00,CLR,CLR,0.00,591.0,WeatherDisplay:10.37,2013-03-13 20:20:00,
2013-03-13 16:30:00,40.8,18.9,30.11,WSW,242,16.0,26.0,41,0.00,CLR,CLR,0.00,559.0,WeatherDisplay:10.37,2013-03-13 20:30:00,
2013-03-13 16:40:00,40.2,18.9,30.12,WSW,243,12.0,28.0,42,0.00,CLR,CLR,0.00,531.0,WeatherDisplay:10.37,2013-03-13 20:40:00,
2013-03-13 16:50:00,39.5,18.2,30.12,WSW,258,13.0,31.0,42,0.00,CLR,CLR,0.00,503.0,WeatherDisplay:10.37,2013-03-13 20:50:00,
2013-03-13 16:55:00,39.7,19.0,30.12,West,259,14.0,25.0,43,0.00,CLR,CLR,0.00,487.0,WeatherDisplay:10.37,2013-03-13 20:55:00,
2013-03-13 17:05:00,39.9,18.6,30.12,WSW,244,15.0,26.0,42,0.00,CLR,CLR,0.00,455.0,WeatherDisplay:10.37,2013-03-13 21:05:00,
2013-03-13 17:10:00,39.7,18.4,30.12,WSW,246,10.0,21.0,42,0.00,CLR,CLR,0.00,436.0,WeatherDisplay:10.37,2013-03-13 21:10:00,
2013-03-13 17:15:00,39.4,18.7,30.12,WSW,246,16.0,26.0,43,0.00,CLR,CLR,0.00,422.0,WeatherDisplay:10.37,2013-03-13 21:15:00,
2013-03-13 17:20:00,39.0,18.4,30.13,WSW,248,20.0,28.0,43,0.00,CLR,CLR,0.00,404.0,WeatherDisplay:10.37,2013-03-13 21:20:00,
2013-03-13 17:30:00,38.9,18.2,30.13,WSW,252,12.0,23.0,43,0.00,CLR,CLR,0.00,373.0,WeatherDisplay:10.37,2013-03-13 21:30:00,
2013-03-13 17:35:00,39.2,18.5,30.13,WSW,252,8.0,20.0,43,0.00,CLR,CLR,0.00,357.0,WeatherDisplay:10.37,2013-03-13 21:35:00,
2013-03-13 17:40:00,39.0,18.9,30.13,WSW,255,9.0,20.0,44,0.00,CLR,CLR,0.00,339.0,WeatherDisplay:10.37,2013-03-13 21:40:00,
2013-03-13 17:45:00,39.0,18.9,30.13,WSW,258,15.0,25.0,44,0.00,CLR,CLR,0.00,322.0,WeatherDisplay:10.37,2013-03-13 21:45:00,
2013-03-13 17:50:00,38.6,18.5,30.13,WSW,249,10.0,20.0,44,0.00,CLR,CLR,0.00,304.0,WeatherDisplay:10.37,2013-03-13 21:50:00,
2013-03-13 17:55:00,38.7,19.2,30.13,WSW,251,8.0,16.0,45,0.00,CLR,CLR,0.00,290.0,WeatherDisplay:10.37,2013-03-13 21:55:00,
2013-03-13 18:00:00,38.5,18.5,30.13,WSW,249,10.0,15.0,44,0.00,CLR,CLR,0.00,271.0,WeatherDisplay:10.37,2013-03-13 22:00:00,
2013-03-13 18:10:00,38.3,19.3,30.14,WSW,250,9.0,16.0,46,0.00,CLR,CLR,0.00,239.0,WeatherDisplay:10.37,2013-03-13 22:10:00,
2013-03-13 18:15:00,38.1,18.6,30.14,WSW,245,8.0,18.0,45,0.00,CLR,CLR,0.00,220.0,WeatherDisplay:10.37,2013-03-13 22:15:00,
2013-03-13 18:20:00,37.8,18.9,30.15,SW,234,13.0,18.0,46,0.00,FEW,FEW,0.00,197.0,WeatherDisplay:10.37,2013-03-13 22:20:00,
2013-03-13 18:30:00,37.5,19.1,30.15,WSW,246,8.0,18.0,47,0.00,CLR,CLR,0.00,176.0,WeatherDisplay:10.37,2013-03-13 22:30:00,
2013-03-13 18:35:00,37.3,19.4,30.16,WSW,250,8.0,18.0,48,0.00,CLR,CLR,0.00,162.0,WeatherDisplay:10.37,2013-03-13 22:35:00,
2013-03-13 18:40:00,37.0,18.6,30.16,WSW,249,9.0,18.0,47,0.00,CLR,CLR,0.00,153.0,WeatherDisplay:10.37,2013-03-13 22:40:00,
2013-03-13 18:45:00,36.9,19.0,30.17,WSW,254,8.0,16.0,48,0.00,CLR,CLR,0.00,132.0,WeatherDisplay:10.37,2013-03-13 22:45:00,
2013-03-13 18:50:00,36.7,18.9,30.17,WSW,245,6.0,15.0,48,0.00,SCT,SCT,0.00,93.0,WeatherDisplay:10.37,2013-03-13 22:50:00,
2013-03-13 19:00:00,36.2,18.9,30.17,WSW,242,7.0,12.0,49,0.00,SCT,SCT,0.00,67.0,WeatherDisplay:10.37,2013-03-13 23:00:00,
2013-03-13 19:05:00,36.1,18.7,30.17,WSW,238,6.0,9.0,49,0.00,SCT,SCT,0.00,46.0,WeatherDisplay:10.37,2013-03-13 23:05:00,
2013-03-13 19:15:00,34.7,18.4,30.17,WSW,249,6.0,17.0,51,0.00,SCT,SCT,0.00,30.0,WeatherDisplay:10.37,2013-03-13 23:15:00,
2013-03-13 19:25:00,34.0,18.2,30.17,WSW,246,3.0,20.0,52,0.00,SCT,SCT,0.00,18.0,WeatherDisplay:10.37,2013-03-13 23:25:00,
2013-03-13 19:30:00,33.8,18.0,30.18,WSW,247,2.0,10.0,52,0.00,SCT,SCT,0.00,12.0,WeatherDisplay:10.37,2013-03-13 23:30:00,
2013-03-13 19:40:00,33.4,18.5,30.18,WSW,248,5.0,7.0,54,0.00,OVC,OVC,0.00,0.0,WeatherDisplay:10.37,2013-03-13 23:40:00,
2013-03-13 19:45:00,33.2,17.9,30.18,WSW,246,1.0,12.0,53,0.00,OVC,OVC,0.00,0.0,WeatherDisplay:10.37,2013-03-13 23:45:00,
2013-03-13 19:50:00,33.1,18.2,30.18,WSW,250,1.0,9.0,54,0.00,OVC,OVC,0.00,0.0,WeatherDisplay:10.37,2013-03-13 23:50:00,
2013-03-13 20:00:00,32.7,18.3,30.19,South,191,0.0,2.0,55,0.00,CLR,CLR,0.00,0.0,WeatherDisplay:10.37,2013-03-14 00:00:00,
2013-03-13 20:05:00,32.5,17.7,30.19,WNW,295,0.0,7.0,54,0.00,CLR,CLR,0.00,0.0,WeatherDisplay:10.37,2013-03-14 00:05:00,
2013-03-13 20:10:00,32.4,18.4,30.19,WNW,295,0.0,1.0,56,0.00,CLR,CLR,0.00,0.0,WeatherDisplay:10.37,2013-03-14 00:10:00,
2013-03-13 20:15:00,32.1,17.7,30.20,SSW,213,0.0,3.0,55,0.00,CLR,CLR,0.00,0.0,WeatherDisplay:10.37,2013-03-14 00:15:00,
2013-03-13 20:25:00,31.9,18.4,30.20,SW,214,3.0,10.0,57,0.00,CLR,CLR,0.00,0.0,WeatherDisplay:10.37,2013-03-14 00:25:00,
2013-03-13 20:30:00,32.0,18.1,30.20,West,265,0.0,12.0,56,0.00,CLR,CLR,0.00,0.0,WeatherDisplay:10.37,2013-03-14 00:30:00,
2013-03-13 20:35:00,31.9,18.4,30.20,West,265,0.0,3.0,57,0.00,CLR,CLR,0.00,0.0,WeatherDisplay:10.37,2013-03-14 00:35:00,
2013-03-13 20:40:00,31.8,17.5,30.20,West,279,0.0,9.0,55,0.00,CLR,CLR,0.00,0.0,WeatherDisplay:10.37,2013-03-14 00:40:00,
2013-03-13 20:45:00,31.8,17.4,30.20,WNW,303,2.0,7.0,55,0.00,CLR,CLR,0.00,0.0,WeatherDisplay:10.37,2013-03-14 00:45:00,
2013-03-13 20:55:00,31.8,17.0,30.20,West,262,0.0,4.0,54,0.00,CLR,CLR,0.00,0.0,WeatherDisplay:10.37,2013-03-14 00:55:00,
2013-03-13 21:00:00,31.7,16.9,30.20,WNW,284,3.0,8.0,54,0.00,CLR,CLR,0.00,0.0,WeatherDisplay:10.37,2013-03-14 01:00:00,
2013-03-13 21:05:00,31.7,16.5,30.20,NW,316,0.0,2.0,53,0.00,CLR,CLR,0.00,0.0,WeatherDisplay:10.37,2013-03-14 01:05:00,
2013-03-13 21:10:00,31.6,17.2,30.20,NNW,334,0.0,0.0,55,0.00,CLR,CLR,0.00,0.0,WeatherDisplay:10.37,2013-03-14 01:10:00,
2013-03-13 21:15:00,31.4,17.1,30.20,NNW,337,0.0,2.0,55,0.00,CLR,CLR,0.00,0.0,WeatherDisplay:10.37,2013-03-14 01:15:00,
2013-03-13 21:20:00,31.3,16.6,30.20,WNW,290,1.0,8.0,54,0.00,CLR,CLR,0.00,0.0,WeatherDisplay:10.37,2013-03-14 01:20:00,
2013-03-13 21:25:00,31.4,16.7,30.20,West,276,0.0,2.0,54,0.00,CLR,CLR,0.00,0.0,WeatherDisplay:10.37,2013-03-14 01:25:00,
2013-03-13 21:35:00,31.4,16.2,30.20,West,268,3.0,12.0,53,0.00,CLR,CLR,0.00,0.0,WeatherDisplay:10.37,2013-03-14 01:35:00,
2013-03-13 21:40:00,31.4,16.7,30.20,West,261,1.0,10.0,54,0.00,CLR,CLR,0.00,0.0,WeatherDisplay:10.37,2013-03-14 01:40:00,
2013-03-13 21:45:00,31.2,17.3,30.20,WSW,254,1.0,9.0,56,0.00,CLR,CLR,0.00,0.0,WeatherDisplay:10.37,2013-03-14 01:45:00,
2013-03-13 21:50:00,31.1,17.2,30.20,WSW,256,6.0,12.0,56,0.00,CLR,CLR,0.00,0.0,WeatherDisplay:10.37,2013-03-14 01:50:00,
2013-03-13 21:55:00,31.1,16.8,30.20,West,259,3.0,8.0,55,0.00,CLR,CLR,0.00,0.0,WeatherDisplay:10.37,2013-03-14 01:55:00,
2013-03-13 22:00:00,31.0,16.7,30.21,WSW,251,5.0,9.0,55,0.00,CLR,CLR,0.00,0.0,WeatherDisplay:10.37,2013-03-14 02:00:00,
2013-03-13 22:10:00,30.7,16.4,30.21,West,278,1.0,7.0,55,0.00,CLR,CLR,0.00,0.0,WeatherDisplay:10.37,2013-03-14 02:10:00,
2013-03-13 22:20:00,30.6,16.3,30.21,WSW,256,1.0,10.0,55,0.00,CLR,CLR,0.00,0.0,WeatherDisplay:10.37,2013-03-14 02:20:00,
2013-03-13 22:30:00,30.4,17.0,30.21,WSW,251,1.0,5.0,57,0.00,CLR,CLR,0.00,0.0,WeatherDisplay:10.37,2013-03-14 02:30:00,
2013-03-13 22:40:00,30.3,16.9,30.21,WSW,250,2.0,7.0,57,0.00,CLR,CLR,0.00,0.0,WeatherDisplay:10.37,2013-03-14 02:40:00,
2013-03-13 22:45:00,30.2,16.8,30.22,WSW,239,1.0,12.0,57,0.00,CLR,CLR,0.00,0.0,WeatherDisplay:10.37,2013-03-14 02:45:00,
2013-03-13 22:50:00,30.1,16.7,30.22,SW,236,2.0,7.0,57,0.00,CLR,CLR,0.00,0.0,WeatherDisplay:10.37,2013-03-14 02:50:00,
2013-03-13 23:00:00,29.9,16.9,30.22,West,279,0.0,6.0,58,0.00,CLR,CLR,0.00,0.0,WeatherDisplay:10.37,2013-03-14 03:00:00,
2013-03-13 23:10:00,29.7,17.1,30.22,WSW,252,1.0,5.0,59,0.00,CLR,CLR,0.00,0.0,WeatherDisplay:10.37,2013-03-14 03:10:00,
2013-03-13 23:20:00,29.4,16.8,30.22,WSW,242,3.0,7.0,59,0.00,CLR,CLR,0.00,0.0,WeatherDisplay:10.37,2013-03-14 03:20:00,
2013-03-13 23:25:00,29.3,16.7,30.22,WSW,241,3.0,6.0,59,0.00,CLR,CLR,0.00,0.0,WeatherDisplay:10.37,2013-03-14 03:25:00,
2013-03-13 23:30:00,29.2,17.0,30.22,WSW,245,5.0,10.0,60,0.00,CLR,CLR,0.00,0.0,WeatherDisplay:10.37,2013-03-14 03:30:00,
2013-03-13 23:35:00,29.1,16.9,30.22,WSW,247,5.0,10.0,60,0.00,CLR,CLR,0.00,0.0,WeatherDisplay:10.37,2013-03-14 03:35:00,
2013-03-13 23:40:00,29.1,16.9,30.22,WSW,240,2.0,7.0,60,0.00,CLR,CLR,0.00,0.0,WeatherDisplay:10.37,2013-03-14 03:40:00,
2013-03-13 23:45:00,28.9,16.7,30.22,WSW,241,2.0,6.0,60,0.00,CLR,CLR,0.00,0.0,WeatherDisplay:10.37,2013-03-14 03:45:00,
2013-03-13 23:50:00,28.7,16.6,30.23,SW,234,2.0,6.0,60,0.00,CLR,CLR,0.00,0.0,WeatherDisplay:10.37,2013-03-14 03:50:00,
2013-03-13 23:55:00,28.7,16.2,30.23,SW,225,2.0,6.0,59,0.00,CLR,CLR,0.00,0.0,WeatherDisplay:10.37,2013-03-14 03:55:00,